Time;durP1;ratioP1;P1;durP2;ratioP2;P2;SDS_P1;SDS_P2;PMS_P1;PMS_P2;Temp;Humidity;BMP_temperature;BMP_pressure;BME280_temperature;BME280_humidity;BME280_pressure;Samples;Min_cycle;Max_cycle;Signal;HPM_P1;HPM_P2
2022/05/12 00:02:25;;;;;;;1999.90;576.80;;;10.60;99.90;;;;;;5129751;27;20091;-78
2022/05/12 00:04:51;;;;;;;1999.90;502.45;;;10.50;99.90;;;;;;5132839;27;20563;-77
2022/05/12 00:07:16;;;;;;;1999.90;644.63;;;10.50;99.90;;;;;;5131047;27;20069;-78
2022/05/12 00:09:42;;;;;;;1999.90;705.03;;;10.50;99.90;;;;;;5129548;27;20043;-78
2022/05/12 00:12:08;;;;;;;1999.90;692.28;;;10.80;99.90;;;;;;5129690;27;20039;-78
2022/05/12 00:14:34;;;;;;;1999.90;725.25;;;10.40;99.90;;;;;;5130845;27;20126;-78
2022/05/12 00:17:01;;;;;;;1999.90;664.78;;;10.40;99.90;;;;;;5127592;27;20039;-79
2022/05/12 00:19:27;;;;;;;1999.90;793.75;;;10.30;99.90;;;;;;5129431;27;20051;-79
2022/05/12 00:21:55;;;;;;;1999.90;643.47;;;10.30;99.90;;;;;;5128998;27;20043;-78
2022/05/12 00:24:21;;;;;;;1999.90;644.38;;;10.30;99.90;;;;;;5129483;27;20051;-79
2022/05/12 00:26:47;;;;;;;1999.90;581.33;;;10.30;99.90;;;;;;5128158;27;20423;-79
2022/05/12 00:29:13;;;;;;;1999.90;618.55;;;10.30;99.90;;;;;;5131221;27;20081;-80
2022/05/12 00:31:42;;;;;;;1999.90;723.15;;;10.20;99.90;;;;;;5105890;28;20417;-79
2022/05/12 00:34:10;;;;;;;1999.90;667.45;;;10.30;99.90;;;;;;5126950;27;20047;-79
2022/05/12 00:36:36;;;;;;;1999.90;573.92;;;10.20;99.90;;;;;;5130671;27;20434;-79
2022/05/12 00:39:03;;;;;;;1999.90;583.60;;;10.10;99.90;;;;;;5130373;27;20500;-79
2022/05/12 00:41:29;;;;;;;1999.90;688.40;;;10.10;99.90;;;;;;5130076;27;20043;-79
2022/05/12 00:43:59;;;;;;;1848.25;422.35;;;10.50;99.90;;;;;;5108543;27;20882;-80
2022/05/12 00:46:28;;;;;;;1999.90;666.47;;;9.90;99.90;;;;;;5128169;27;20043;-80
2022/05/12 00:48:57;;;;;;;1999.90;637.45;;;10.70;99.90;;;;;;5129287;27;20491;-79
2022/05/12 00:51:43;;;;;;;1999.90;724.58;;;10.10;99.90;;;;;;5093680;27;20043;-80
2022/05/12 00:54:28;;;;;;;1999.90;630.88;;;9.90;99.90;;;;;;5113537;27;20114;-80
2022/05/12 00:56:54;;;;;;;1723.00;397.15;;;9.90;99.90;;;;;;5129206;27;20044;-80
2022/05/12 00:59:28;;;;;;;1999.90;807.60;;;9.90;99.90;;;;;;5125954;27;20047;-80
2022/05/12 01:01:55;;;;;;;1999.90;741.22;;;9.90;99.90;;;;;;5120249;27;20042;-79
2022/05/12 01:04:22;;;;;;;1999.90;632.03;;;9.90;99.90;;;;;;5128118;27;20039;-80
2022/05/12 01:06:49;;;;;;;1999.90;675.58;;;9.80;99.90;;;;;;5123957;27;20050;-80
2022/05/12 01:09:15;;;;;;;1999.90;696.55;;;9.80;99.90;;;;;;5122179;27;20093;-78
2022/05/12 01:11:41;;;;;;;1999.90;820.50;;;9.80;99.90;;;;;;5125223;27;20043;-81
2022/05/12 01:14:08;;;;;;;1999.90;909.83;;;9.80;99.90;;;;;;5130214;27;20039;-81
2022/05/12 01:16:50;;;;;;;1999.90;920.17;;;9.80;99.90;;;;;;5126653;27;20047;-81
2022/05/12 01:19:20;;;;;;;1999.90;814.40;;;9.80;99.90;;;;;;5129162;27;20487;-81
2022/05/12 01:21:47;;;;;;;1492.72;296.45;;;9.80;99.90;;;;;;5129139;27;20043;-81
2022/05/12 01:24:14;;;;;;;1925.40;622.65;;;9.70;99.90;;;;;;5129198;27;20058;-81
2022/05/12 01:26:40;;;;;;;1999.90;742.17;;;9.70;99.90;;;;;;5128898;27;20066;-80
2022/05/12 01:29:06;;;;;;;1999.90;610.92;;;9.70;99.90;;;;;;5126279;27;20162;-81
2022/05/12 01:31:32;;;;;;;1999.90;834.80;;;9.60;99.90;;;;;;5108276;28;20051;-81
2022/05/12 01:33:58;;;;;;;1999.90;808.15;;;9.60;99.90;;;;;;5124242;27;20510;-81
2022/05/12 01:36:24;;;;;;;1999.90;714.70;;;10.00;99.90;;;;;;5129398;27;20126;-82
2022/05/12 01:38:50;;;;;;;1999.90;750.05;;;9.60;99.90;;;;;;5126275;27;20059;-82
2022/05/12 01:41:16;;;;;;;1999.90;706.92;;;10.20;99.90;;;;;;5129278;27;20062;-82
2022/05/12 01:43:42;;;;;;;1999.90;658.22;;;9.50;99.90;;;;;;5128984;27;20454;-82
2022/05/12 01:46:08;;;;;;;1999.90;856.42;;;9.70;99.90;;;;;;5128999;27;20079;-83
2022/05/12 01:48:34;;;;;;;1999.90;744.92;;;9.50;99.90;;;;;;5128328;28;20060;-83
2022/05/12 01:51:01;;;;;;;1999.90;665.20;;;10.30;99.90;;;;;;5108233;28;20043;-82
2022/05/12 01:53:27;;;;;;;1999.90;818.58;;;9.40;99.90;;;;;;5131015;28;20047;-82
2022/05/12 01:55:52;;;;;;;1999.90;836.03;;;9.40;99.90;;;;;;5128183;28;20085;-81
2022/05/12 01:58:20;;;;;;;1999.90;716.90;;;10.20;99.90;;;;;;5108346;28;20081;-83
2022/05/12 02:00:46;;;;;;;1999.90;602.83;;;9.80;99.90;;;;;;5128543;28;20070;-82
2022/05/12 02:03:11;;;;;;;1999.90;699.70;;;9.50;99.90;;;;;;5127421;28;20467;-82
2022/05/12 02:05:38;;;;;;;1999.90;588.47;;;9.40;99.90;;;;;;5127215;28;20501;-83
2022/05/12 02:08:05;;;;;;;1977.17;513.70;;;9.40;99.90;;;;;;5125903;28;20285;-82
2022/05/12 02:10:37;;;;;;;1999.90;708.00;;;9.40;99.90;;;;;;5129893;28;20077;-83
2022/05/12 02:13:08;;;;;;;1999.90;645.97;;;9.50;99.90;;;;;;5128881;28;20050;-82
2022/05/12 02:15:34;;;;;;;1999.90;571.85;;;9.50;99.90;;;;;;5108547;28;20046;-82
2022/05/12 02:18:00;;;;;;;1999.90;692.05;;;9.50;99.90;;;;;;5107522;28;20054;-83
2022/05/12 02:20:26;;;;;;;1988.30;506.30;;;9.40;99.90;;;;;;5110389;27;20055;-84
2022/05/12 02:22:52;;;;;;;1999.90;722.28;;;9.40;99.90;;;;;;5127900;28;20067;-83
2022/05/12 02:25:18;;;;;;;1999.90;851.50;;;9.60;99.90;;;;;;5128294;27;20115;-83
2022/05/12 02:27:46;;;;;;;1999.90;526.47;;;9.40;99.90;;;;;;5128492;27;20038;-82
2022/05/12 02:30:22;;;;;;;1999.90;683.75;;;9.40;99.90;;;;;;5107219;28;20136;-84
2022/05/12 02:32:48;;;;;;;1999.90;675.95;;;9.40;99.90;;;;;;5126543;28;20144;-82
2022/05/12 02:35:15;;;;;;;1999.90;789.88;;;9.80;99.90;;;;;;5108279;28;20134;-84
2022/05/12 02:37:41;;;;;;;1999.90;911.53;;;9.40;99.90;;;;;;5122972;28;20042;-84
2022/05/12 02:40:09;;;;;;;1999.90;781.25;;;9.30;99.90;;;;;;5128901;28;20129;-84
2022/05/12 02:42:34;;;;;;;1999.90;598.28;;;9.30;99.90;;;;;;5128634;28;20031;-84
2022/05/12 02:45:00;;;;;;;1999.90;758.30;;;9.30;99.90;;;;;;5108180;28;20046;-83
2022/05/12 02:47:26;;;;;;;1999.90;688.80;;;9.30;99.90;;;;;;5126443;28;20047;-84
2022/05/12 02:49:51;;;;;;;1999.90;977.63;;;9.30;99.90;;;;;;5128722;28;20122;-84
2022/05/12 02:52:17;;;;;;;1998.93;533.33;;;9.30;99.90;;;;;;5111248;28;20108;-84
2022/05/12 02:54:43;;;;;;;1999.90;999.90;;;9.30;99.90;;;;;;5126111;27;20061;-84
2022/05/12 02:57:09;;;;;;;1999.90;769.50;;;9.30;99.90;;;;;;5096011;27;20053;-85
2022/05/12 02:59:36;;;;;;;1999.90;709.28;;;9.20;99.90;;;;;;5131411;27;20041;-84
2022/05/12 03:02:02;;;;;;;1999.90;999.90;;;9.90;99.90;;;;;;5097032;27;20062;-84
2022/05/12 03:04:28;;;;;;;1999.90;999.90;;;9.40;99.90;;;;;;5133105;27;20059;-82
2022/05/12 03:06:53;;;;;;;1999.90;961.92;;;9.50;99.90;;;;;;5094627;27;20047;-84
2022/05/12 03:09:19;;;;;;;1999.90;994.38;;;9.50;99.90;;;;;;5107116;28;20047;-85
2022/05/12 03:11:45;;;;;;;1999.90;999.90;;;10.20;99.90;;;;;;5132385;27;20047;-85
2022/05/12 03:14:11;;;;;;;1999.90;999.90;;;10.40;99.90;;;;;;5133009;27;20110;-85
2022/05/12 03:16:37;;;;;;;1999.90;929.03;;;9.50;1.00;;;;;;5132054;27;20180;-84
2022/05/12 03:19:03;;;;;;;1999.90;999.90;;;9.30;1.00;;;;;;5131778;27;20062;-84
2022/05/12 03:21:28;;;;;;;1999.90;999.90;;;9.30;1.00;;;;;;5131527;27;20039;-82
2022/05/12 03:23:54;;;;;;;1999.90;999.90;;;9.70;1.00;;;;;;5131888;27;20031;-84
2022/05/12 03:26:23;;;;;;;1999.90;961.33;;;9.50;1.00;;;;;;5131287;27;20122;-85
2022/05/12 03:28:48;;;;;;;1999.90;715.60;;;9.80;1.00;;;;;;5132688;27;20328;-85
2022/05/12 03:31:14;;;;;;;1999.90;798.67;;;10.20;1.00;;;;;;5134448;27;20069;-85
2022/05/12 03:33:41;;;;;;;1999.90;703.17;;;9.50;1.00;;;;;;5112650;27;20123;-83
2022/05/12 03:36:07;;;;;;;1999.90;916.28;;;9.90;1.00;;;;;;5109061;27;20364;-85
2022/05/12 03:38:34;;;;;;;1999.90;999.90;;;9.30;1.00;;;;;;5133385;27;20387;-85
2022/05/12 03:40:59;;;;;;;1999.90;999.90;;;9.60;1.00;;;;;;5131734;27;20059;-85
2022/05/12 03:46:12;;;;;;;1999.90;999.90;;;10.40;1.00;;;;;;5131891;27;20142;-85
2022/05/12 03:48:39;;;;;;;1999.90;999.90;;;9.40;1.00;;;;;;5131895;27;20176;-85
2022/05/12 03:51:06;;;;;;;1999.90;910.22;;;10.30;1.00;;;;;;5131867;27;21027;-84
2022/05/12 03:53:33;;;;;;;1999.90;896.25;;;9.60;1.00;;;;;;5131794;27;20055;-84
2022/05/12 03:56:00;;;;;;;1999.90;944.95;;;9.40;1.00;;;;;;5113662;27;20055;-84
2022/05/12 03:58:27;;;;;;;1999.90;591.83;;;9.80;1.00;;;;;;5131444;27;20118;-86
2022/05/12 04:00:53;;;;;;;1999.90;728.15;;;9.60;1.00;;;;;;5112584;27;20044;-86
2022/05/12 04:03:19;;;;;;;1999.90;664.03;;;9.70;1.00;;;;;;5132058;27;20035;-86
2022/05/12 04:05:45;;;;;;;1235.65;238.70;;;9.40;1.00;;;;;;5128217;27;20062;-81
2022/05/12 04:08:11;;;;;;;1999.90;996.22;;;10.40;1.00;;;;;;5129906;27;20125;-87
2022/05/12 04:10:37;;;;;;;1999.90;785.17;;;9.70;1.00;;;;;;5133920;27;20562;-86
2022/05/12 04:13:03;;;;;;;1999.90;933.85;;;9.60;1.00;;;;;;5128560;27;20059;-86
2022/05/12 04:15:29;;;;;;;1999.90;659.97;;;9.60;1.00;;;;;;5133346;27;20043;-86
2022/05/12 04:17:58;;;;;;;1999.90;607.55;;;9.50;1.00;;;;;;5131414;27;20035;-87
2022/05/12 04:20:24;;;;;;;1999.90;782.15;;;10.00;1.00;;;;;;5111714;27;20119;-86
2022/05/12 04:22:50;;;;;;;1999.90;588.53;;;9.60;1.00;;;;;;5113621;27;20384;-86
2022/05/12 04:25:16;;;;;;;1999.90;838.08;;;9.60;1.00;;;;;;5132448;27;20054;-84
2022/05/12 04:27:42;;;;;;;1999.90;544.28;;;9.60;1.00;;;;;;5133023;27;20429;-84
2022/05/12 04:30:11;;;;;;;1999.90;795.05;;;9.60;1.00;;;;;;5125239;27;20448;-86
2022/05/12 04:32:37;;;;;;;1999.90;692.80;;;9.70;1.00;;;;;;5116622;27;20059;-85
2022/05/12 04:35:17;;;;;;;1999.90;902.72;;;9.70;1.00;;;;;;5125681;27;20487;-85
2022/05/12 04:37:51;;;;;;;1938.35;529.22;;;9.60;1.00;;;;;;5128429;27;20042;-84
2022/05/12 04:40:29;;;;;;;1999.90;798.45;;;9.60;1.00;;;;;;5129903;27;20104;-89
2022/05/12 04:42:58;;;;;;;1999.90;621.55;;;9.60;1.00;;;;;;5130306;27;20463;-86
2022/05/12 04:45:26;;;;;;;1999.90;688.17;;;9.60;1.00;;;;;;5107835;27;20051;-84
2022/05/12 04:47:52;;;;;;;1999.90;867.22;;;11.10;1.00;;;;;;5121965;27;20082;-84
2022/05/12 04:50:22;;;;;;;1999.90;973.83;;;10.30;1.00;;;;;;5130447;27;20082;-85
2022/05/12 04:52:51;;;;;;;1999.90;989.58;;;9.90;1.00;;;;;;5120917;27;20075;-85
2022/05/12 04:55:17;;;;;;;1999.90;788.80;;;11.00;1.00;;;;;;5131967;27;20079;-83
2022/05/12 04:57:46;;;;;;;1999.90;965.70;;;10.10;1.00;;;;;;5128829;27;20031;-84
2022/05/12 05:00:18;;;;;;;1999.90;927.60;;;10.00;1.00;;;;;;5125663;27;20039;-87
2022/05/12 05:02:44;;;;;;;1999.90;835.58;;;10.10;1.00;;;;;;5125105;27;20437;-85
2022/05/12 05:05:10;;;;;;;1999.90;884.30;;;10.00;1.00;;;;;;5124259;27;20039;-85
2022/05/12 05:07:36;;;;;;;1999.90;672.35;;;10.20;1.00;;;;;;5128932;27;20053;-86
2022/05/12 05:10:03;;;;;;;1999.90;849.88;;;11.30;1.00;;;;;;5120376;27;20125;-85
2022/05/12 05:12:29;;;;;;;1999.90;874.95;;;10.20;1.00;;;;;;5125964;27;20047;-86
2022/05/12 05:14:56;;;;;;;1999.90;775.40;;;10.00;1.00;;;;;;5127355;27;20054;-87
2022/05/12 05:17:22;;;;;;;1999.90;580.58;;;10.20;1.00;;;;;;5129995;27;20062;-87
2022/05/12 05:19:48;;;;;;;1999.90;927.67;;;10.30;1.00;;;;;;5133362;27;20069;-85
2022/05/12 05:22:14;;;;;;;1999.90;861.30;;;10.20;1.00;;;;;;5128615;27;20475;-82
2022/05/12 05:24:41;;;;;;;1999.90;896.95;;;10.40;1.00;;;;;;5123749;27;20081;-83
2022/05/12 05:27:07;;;;;;;1999.90;976.72;;;10.40;1.00;;;;;;5111991;27;20096;-86
2022/05/12 05:29:33;;;;;;;1999.90;996.88;;;10.20;1.00;;;;;;5125537;27;20050;-86
2022/05/12 05:31:58;;;;;;;1999.90;982.17;;;10.70;1.00;;;;;;5109351;27;20055;-87
2022/05/12 05:34:24;;;;;;;1999.90;978.13;;;10.50;1.00;;;;;;5111938;28;20054;-86
2022/05/12 05:36:50;;;;;;;1999.90;999.90;;;11.70;1.00;;;;;;5093061;28;20066;-87
2022/05/12 05:39:24;;;;;;;1999.90;999.90;;;10.60;1.00;;;;;;5101264;28;20047;-87
2022/05/12 05:41:52;;;;;;;1999.90;999.90;;;10.80;1.00;;;;;;5130209;27;20047;-87
2022/05/12 05:44:17;;;;;;;1999.90;985.05;;;10.90;1.00;;;;;;5129001;27;20058;-84
2022/05/12 05:46:43;;;;;;;1999.90;999.90;;;10.80;1.00;;;;;;5109524;28;20052;-85
2022/05/12 05:49:09;;;;;;;1999.90;999.90;;;11.00;1.00;;;;;;5114138;28;20063;-86
2022/05/12 05:54:19;;;;;;;1999.90;999.90;;;11.00;1.00;;;;;;5129842;27;20077;-85
2022/05/12 05:56:45;;;;;;;1999.90;999.90;;;11.20;99.90;;;;;;5129519;27;20482;-86
2022/05/12 05:59:11;;;;;;;1999.90;999.90;;;11.30;99.90;;;;;;5114086;28;20035;-81
2022/05/12 06:01:37;;;;;;;1999.90;999.55;;;11.30;99.90;;;;;;5074563;28;20051;-85
2022/05/12 06:04:03;;;;;;;1999.90;999.90;;;11.40;99.90;;;;;;5110926;28;20058;-87
2022/05/12 06:06:28;;;;;;;1999.90;999.90;;;11.30;99.90;;;;;;5127647;28;20046;-86
2022/05/12 06:08:54;;;;;;;1999.90;999.90;;;11.30;99.90;;;;;;5113460;28;20050;-88
2022/05/12 06:11:20;;;;;;;1999.90;999.90;;;11.50;99.90;;;;;;5113398;28;20129;-89
2022/05/12 06:13:48;;;;;;;1999.90;999.90;;;11.50;99.90;;;;;;5132333;28;20050;-88
2022/05/12 06:16:14;;;;;;;1999.90;999.90;;;11.40;99.90;;;;;;5130957;28;20047;-80
2022/05/12 06:18:41;;;;;;;1999.90;999.90;;;11.50;99.90;;;;;;5130436;28;20040;-88
2022/05/12 06:21:12;;;;;;;1999.90;999.90;;;11.60;99.90;;;;;;5129370;27;20126;-87
2022/05/12 06:23:38;;;;;;;1995.22;829.85;;;12.40;99.90;;;;;;5127146;27;20534;-88
2022/05/12 06:26:09;;;;;;;1999.90;999.90;;;11.70;99.90;;;;;;5125774;28;20046;-87
2022/05/12 06:28:35;;;;;;;1999.90;999.90;;;11.80;99.90;;;;;;5127773;27;20046;-89
2022/05/12 06:31:01;;;;;;;1999.90;999.90;;;11.90;99.90;;;;;;5116604;27;20039;-89
2022/05/12 06:33:27;;;;;;;1999.90;999.90;;;11.70;99.90;;;;;;5096721;28;20044;-88
2022/05/12 06:35:55;;;;;;;1999.90;998.88;;;11.80;99.90;;;;;;5097339;27;20047;-88
2022/05/12 06:38:21;;;;;;;1999.90;994.33;;;11.90;99.90;;;;;;5111226;27;20070;-88
2022/05/12 06:40:47;;;;;;;1999.90;957.03;;;12.00;99.90;;;;;;5117089;27;20073;-87
2022/05/12 06:43:13;;;;;;;1999.90;999.90;;;12.40;99.90;;;;;;5135732;27;20075;-88
2022/05/12 06:45:39;;;;;;;1999.90;963.08;;;12.10;98.80;;;;;;5112918;27;20397;-87
2022/05/12 06:48:05;;;;;;;1999.90;761.47;;;12.10;99.90;;;;;;5134861;27;20062;-87
2022/05/12 06:50:32;;;;;;;1999.90;888.17;;;12.10;99.90;;;;;;5126810;27;20055;-90
2022/05/12 06:52:58;;;;;;;1999.90;876.80;;;12.10;97.20;;;;;;5113748;28;20231;-90
2022/05/12 06:55:27;;;;;;;1999.90;815.95;;;12.10;99.90;;;;;;5113865;28;20130;-90
2022/05/12 06:57:53;;;;;;;1999.90;906.85;;;12.20;95.60;;;;;;5132357;27;20039;-89
2022/05/12 07:00:20;;;;;;;1999.90;877.90;;;12.20;94.30;;;;;;5111479;27;20092;-87
2022/05/12 07:02:47;;;;;;;1999.90;942.70;;;13.20;65.20;;;;;;5126621;27;20096;-86
2022/05/12 07:05:16;;;;;;;1794.05;999.90;;;14.80;15.40;;;;;;5108085;28;20387;-88
2022/05/12 07:07:43;;;;;;;1490.53;867.95;;;15.60;1.00;;;;;;5110627;28;20044;-88
2022/05/12 07:10:10;;;;;;;1999.90;999.90;;;16.60;1.00;;;;;;5115703;27;20079;-84
2022/05/12 07:12:36;;;;;;;1999.90;999.90;;;17.40;1.00;;;;;;5131457;27;20043;-86
2022/05/12 07:15:03;;;;;;;1999.90;976.67;;;18.10;1.00;;;;;;5111508;28;20078;-84
2022/05/12 07:17:29;;;;;;;1999.90;897.15;;;19.10;1.00;;;;;;5123104;27;20039;-82
2022/05/12 07:26:35;;;;;;;1999.90;984.53;;;19.40;1.00;;;;;;5134391;27;20089;-84
2022/05/12 07:28:12;;;;;;;1853.20;999.90;;;20.50;1.00;;;;;;5111175;27;20071;-82
2022/05/12 07:33:22;;;;;;;1134.22;990.60;;;21.40;99.90;;;;;;5111000;28;20052;-80
2022/05/12 07:35:48;;;;;;;1050.15;936.17;;;21.40;99.90;;;;;;5111223;27;20383;-80
2022/05/12 07:38:14;;;;;;;895.22;808.47;;;21.60;99.90;;;;;;5134017;27;20038;-79
2022/05/12 07:40:40;;;;;;;961.70;865.75;;;21.50;99.90;;;;;;5095434;27;20088;-79
2022/05/12 07:43:05;;;;;;;983.97;880.08;;;22.50;99.90;;;;;;5109782;28;20054;-79
2022/05/12 07:45:31;;;;;;;677.40;630.35;;;23.00;99.90;;;;;;5115387;27;20558;-79
2022/05/12 07:47:57;;;;;;;820.67;758.72;;;22.60;99.90;;;;;;5099948;28;20380;-77
2022/05/12 07:50:24;;;;;;;765.63;709.75;;;23.00;99.90;;;;;;5118894;27;20066;-80
2022/05/12 07:52:50;;;;;;;718.78;665.78;;;23.50;99.90;;;;;;5130807;27;20051;-78
2022/05/12 07:55:15;;;;;;;809.83;749.22;;;24.10;99.90;;;;;;5118285;27;20059;-78
2022/05/12 07:57:41;;;;;;;859.42;791.72;;;24.70;99.90;;;;;;5122343;27;20333;-80
2022/05/12 08:00:08;;;;;;;688.05;637.15;;;25.10;99.90;;;;;;5111143;27;20051;-78
2022/05/12 08:02:33;;;;;;;655.67;605.45;;;24.50;99.90;;;;;;5109134;28;20329;-77
2022/05/12 08:04:59;;;;;;;618.88;574.00;;;23.90;99.90;;;;;;5113361;28;20052;-77
2022/05/12 08:07:26;;;;;;;707.60;651.42;;;24.30;99.90;;;;;;5116446;27;20529;-76
2022/05/12 08:09:52;;;;;;;646.90;598.60;;;23.70;99.90;;;;;;5096357;27;20050;-78
2022/05/12 08:12:17;;;;;;;559.97;521.45;;;24.60;99.90;;;;;;5130240;27;20436;-77
2022/05/12 08:14:43;;;;;;;591.00;544.72;;;25.30;99.90;;;;;;5133060;27;20390;-77
2022/05/12 08:17:09;;;;;;;1297.65;978.45;;;25.20;99.90;;;;;;5114273;27;20469;-78
2022/05/12 08:19:35;;;;;;;1930.18;999.90;;;26.00;99.90;;;;;;5131257;27;20047;-77
2022/05/12 08:22:00;;;;;;;585.63;544.50;;;26.60;99.90;;;;;;5113568;27;20039;-79
2022/05/12 08:24:26;;;;;;;968.35;880.25;;;27.30;99.90;;;;;;5131624;27;20138;-77
2022/05/12 08:26:52;;;;;;;821.20;751.38;;;27.40;99.90;;;;;;5093616;28;20462;-76
2022/05/12 08:29:19;;;;;;;707.28;652.28;;;28.00;99.90;;;;;;5123838;27;20043;-77
2022/05/12 08:31:45;;;;;;;921.53;841.40;;;27.50;99.90;;;;;;5130614;27;20111;-76
2022/05/12 08:34:10;;;;;;;692.92;644.40;;;27.20;99.90;;;;;;5114495;27;20285;-77
2022/05/12 08:36:36;;;;;;;967.38;876.65;;;26.60;99.90;;;;;;5131464;27;20035;-77
2022/05/12 08:39:03;;;;;;;859.83;786.90;;;26.40;99.90;;;;;;5132504;27;20039;-80
2022/05/12 08:41:50;;;;;;;938.20;861.92;;;27.20;99.90;;;;;;5110392;27;20055;-76
2022/05/12 08:44:20;;;;;;;1010.85;919.65;;;26.20;99.90;;;;;;5132787;27;20126;-76
2022/05/12 08:46:53;;;;;;;1023.70;932.08;;;25.20;99.90;;;;;;5111229;27;20089;-76
2022/05/12 08:49:22;;;;;;;1049.18;953.58;;;25.10;99.90;;;;;;5132437;27;20074;-76
2022/05/12 08:51:52;;;;;;;1019.53;928.95;;;24.70;99.90;;;;;;5126164;27;20046;-75
2022/05/12 08:54:22;;;;;;;1087.93;981.58;;;23.40;99.90;;;;;;5111175;27;20047;-76
2022/05/12 08:56:54;;;;;;;1027.13;923.83;;;23.30;99.90;;;;;;5131426;27;20126;-76
2022/05/12 08:59:20;;;;;;;969.75;883.28;;;21.30;99.90;;;;;;5130322;27;20055;-76
2022/05/12 09:02:13;;;;;;;1030.40;935.58;;;21.60;99.90;;;;;;5109410;27;20122;-75
2022/05/12 09:05:01;;;;;;;1056.90;951.05;;;22.00;99.90;;;;;;5129550;27;20051;-74
2022/05/12 09:07:42;;;;;;;1066.57;945.90;;;21.90;99.90;;;;;;5111642;27;20122;-74
2022/05/12 09:10:31;;;;;;;1087.70;981.28;;;20.60;99.90;;;;;;5129319;27;20550;-76
2022/05/12 09:12:59;;;;;;;1072.05;971.25;;;21.50;99.90;;;;;;5128910;27;20442;-76
2022/05/12 09:15:26;;;;;;;;;;;22.60;99.90;;;;;;5105275;27;20399;-76
2022/05/12 09:18:05;;;;;;;954.20;868.25;;;23.30;99.90;;;;;;5124543;27;19947;-76
2022/05/12 09:20:34;;;;;;;1101.53;995.28;;;23.80;99.90;;;;;;5107896;28;20101;-76
2022/05/12 09:23:01;;;;;;;1078.78;977.35;;;24.50;99.90;;;;;;5109321;28;20081;-76
2022/05/12 09:25:39;;;;;;;1053.20;953.40;;;24.00;99.90;;;;;;5111527;27;20138;-76
2022/05/12 09:28:25;;;;;;;988.90;909.00;;;24.30;99.90;;;;;;5131788;27;20468;-76
2022/05/12 09:30:51;;;;;;;1093.47;989.63;;;25.70;99.90;;;;;;5115120;27;20384;-77
2022/05/12 09:33:52;;;;;;;1066.32;965.60;;;25.60;99.90;;;;;;5130773;27;20206;-77
2022/05/12 09:36:23;;;;;;;1999.90;999.90;;;24.80;99.90;;;;;;5115800;27;20537;-74
2022/05/12 09:38:54;;;;;;;1086.05;982.55;;;23.20;99.90;;;;;;5129546;27;20483;-76
2022/05/12 09:41:42;;;;;;;1063.53;963.45;;;24.20;99.90;;;;;;5128460;27;20074;-76
2022/05/12 09:44:28;;;;;;;1064.07;965.30;;;24.00;99.90;;;;;;5121518;27;20136;-76
2022/05/12 09:46:58;;;;;;;1011.35;928.20;;;24.50;99.90;;;;;;5116823;27;20440;-76
2022/05/12 09:49:28;;;;;;;971.38;892.08;;;25.90;99.90;;;;;;5130765;27;20055;-76
2022/05/12 09:51:54;;;;;;;1073.05;971.15;;;25.70;99.90;;;;;;5130424;28;20054;-76
2022/05/12 09:54:25;;;;;;;1071.57;972.13;;;24.50;99.90;;;;;;5122336;28;20341;-75
2022/05/12 09:57:01;;;;;;;1080.10;974.25;;;24.90;99.90;;;;;;5096448;28;20043;-76
2022/05/12 09:59:31;;;;;;;1045.45;947.88;;;25.50;99.90;;;;;;5111019;28;20044;-77
2022/05/12 10:02:04;;;;;;;999.42;906.72;;;26.60;99.90;;;;;;5128285;28;20372;-76
2022/05/12 10:10:20;;;;;;;887.53;808.28;;;27.80;99.90;;;;;;5132770;27;20175;-77
2022/05/12 10:12:56;;;;;;;814.75;752.85;;;28.50;99.90;;;;;;5112295;28;20054;-75
2022/05/12 10:15:32;;;;;;;876.28;791.00;;;28.40;99.90;;;;;;5125851;27;20051;-76
2022/05/12 10:18:19;;;;;;;687.55;624.28;;;27.60;99.90;;;;;;5134819;27;20487;-76
2022/05/12 10:20:50;;;;;;;725.78;664.03;;;27.70;99.90;;;;;;5094613;28;20102;-78
2022/05/12 10:23:46;;;;;;;1002.75;908.42;;;27.30;99.90;;;;;;5127445;27;20047;-76
2022/05/12 10:26:20;;;;;;;962.70;871.45;;;28.50;99.90;;;;;;5115479;28;20050;-76
2022/05/12 10:28:55;;;;;;;708.05;655.65;;;29.30;99.90;;;;;;5114777;28;20039;-76
2022/05/12 10:31:35;;;;;;;893.75;815.47;;;28.90;99.90;;;;;;5112654;27;20042;-77
2022/05/12 10:34:18;;;;;;;571.03;518.63;;;28.30;99.90;;;;;;5115545;27;20065;-76
2022/05/12 10:36:50;;;;;;;499.00;462.60;;;28.20;99.90;;;;;;5134515;27;20397;-77
2022/05/12 10:39:22;;;;;;;610.72;557.88;;;28.30;99.90;;;;;;5132954;27;20452;-77
2022/05/12 10:42:05;;;;;;;704.17;648.15;;;27.90;99.90;;;;;;5131812;27;20043;-77
2022/05/12 10:44:48;;;;;;;903.67;826.67;;;26.80;99.90;;;;;;5130930;27;20375;-76
2022/05/12 10:47:25;;;;;;;860.85;790.17;;;25.90;99.90;;;;;;5134809;27;20487;-76
2022/05/12 10:50:12;;;;;;;489.70;453.00;;;25.90;99.90;;;;;;5133915;27;20043;-76
2022/05/12 10:52:59;;;;;;;647.85;599.08;;;25.90;99.90;;;;;;5129853;27;20379;-76
2022/05/12 10:55:38;;;;;;;407.17;379.55;;;26.40;99.90;;;;;;5133214;27;20161;-75
2022/05/12 10:58:27;;;;;;;394.73;369.50;;;27.30;99.90;;;;;;5114042;27;20764;-76
2022/05/12 11:01:04;;;;;;;580.80;527.50;;;27.00;99.90;;;;;;5133037;27;20051;-75
2022/05/12 11:03:34;;;;;;;802.05;732.90;;;25.50;99.90;;;;;;5133165;27;20059;-76
2022/05/12 11:06:05;;;;;;;366.13;339.05;;;25.90;99.90;;;;;;5132014;27;20054;-75
2022/05/12 11:09:02;;;;;;;445.90;415.73;;;26.40;99.90;;;;;;5132082;27;20082;-77
2022/05/12 11:11:33;;;;;;;931.45;830.80;;;27.00;99.90;;;;;;5108019;27;20059;-76
2022/05/12 11:14:22;;;;;;;751.53;683.05;;;25.20;99.90;;;;;;5132197;27;20344;-76
2022/05/12 11:17:18;;;;;;;601.90;558.40;;;25.20;99.90;;;;;;5102072;28;20182;-76
2022/05/12 11:19:55;;;;;;;468.30;435.48;;;25.50;99.90;;;;;;5109150;28;20047;-77
2022/05/12 11:22:43;;;;;;;465.80;432.65;;;26.00;99.90;;;;;;5124182;27;20054;-75
2022/05/12 11:25:17;;;;;;;941.88;778.53;;;26.30;99.90;;;;;;5130539;27;20119;-75
2022/05/12 11:30:57;;;;;;;805.33;725.03;;;25.40;99.90;;;;;;5134055;27;20047;-76
2022/05/12 11:33:38;;;;;;;710.13;652.33;;;25.90;99.90;;;;;;5133847;27;20122;-76
2022/05/12 11:36:07;;;;;;;713.92;653.38;;;27.10;99.90;;;;;;5130043;27;20043;-77
2022/05/12 11:38:39;;;;;;;649.33;601.28;;;28.30;99.90;;;;;;5117707;27;20054;-76
2022/05/12 11:41:20;;;;;;;633.25;585.22;;;28.60;99.90;;;;;;5094330;28;20119;-76
2022/05/12 11:46:51;;;;;;;382.92;358.40;;;29.10;99.90;;;;;;5134328;27;20158;-76
2022/05/12 11:49:41;;;;;;;424.67;397.70;;;29.20;99.90;;;;;;5097788;27;20564;-77
2022/05/12 11:52:40;;;;;;;436.17;407.63;;;28.80;99.90;;;;;;5114800;27;20047;-76
2022/05/12 11:55:29;;;;;;;517.08;480.08;;;28.60;99.90;;;;;;5133837;27;20054;-76
2022/05/12 11:58:11;;;;;;;608.83;551.13;;;27.80;99.90;;;;;;5133430;27;20054;-76
2022/05/12 12:00:37;;;;;;;664.30;552.03;;;26.10;99.90;;;;;;5114102;27;20122;-76
2022/05/12 12:03:22;;;;;;;641.05;585.38;;;26.50;99.90;;;;;;5132376;27;20134;-76
2022/05/12 12:05:47;;;;;;;377.20;353.85;;;26.90;99.90;;;;;;5125241;27;20559;-77
2022/05/12 12:08:39;;;;;;;407.65;378.77;;;27.00;99.90;;;;;;5132337;27;20049;-76
2022/05/12 12:11:14;;;;;;;554.58;507.52;;;27.80;99.90;;;;;;5133205;27;20043;-75
2022/05/12 12:13:41;;;;;;;551.05;504.92;;;27.30;99.90;;;;;;5133564;27;20134;-76
2022/05/12 12:16:22;;;;;;;837.20;685.45;;;26.00;99.90;;;;;;5110226;28;20045;-76
2022/05/12 12:18:52;;;;;;;396.15;366.00;;;25.40;99.90;;;;;;5113228;28;20047;-76
2022/05/12 12:21:39;;;;;;;1066.93;922.80;;;26.30;99.90;;;;;;5131349;27;20047;-75
2022/05/12 12:24:29;;;;;;;1029.95;923.53;;;24.50;99.90;;;;;;5114927;27;20090;-77
2022/05/12 12:27:15;;;;;;;1068.05;955.47;;;23.30;99.90;;;;;;5130823;27;20065;-76
2022/05/12 12:29:46;;;;;;;1460.10;999.90;;;22.20;99.90;;;;;;5115531;27;20368;-75
2022/05/12 12:32:38;;;;;;;1098.10;980.88;;;21.50;99.90;;;;;;5132869;27;20047;-76
2022/05/12 12:35:25;;;;;;;1084.43;976.75;;;21.10;99.90;;;;;;5127945;27;20066;-76
2022/05/12 12:37:51;;;;;;;1077.97;965.47;;;20.80;99.90;;;;;;5130991;27;20043;-76
2022/05/12 12:40:31;;;;;;;975.90;885.55;;;20.90;99.90;;;;;;5132805;27;20119;-76
2022/05/12 12:42:59;;;;;;;1066.88;966.20;;;20.90;99.90;;;;;;5130892;27;20050;-76
2022/05/12 12:45:25;;;;;;;1119.55;998.00;;;20.80;99.90;;;;;;5129214;27;20157;-75
2022/05/12 12:47:51;;;;;;;1109.07;995.17;;;20.90;99.90;;;;;;5096235;27;20058;-75